Time;durP1;ratioP1;P1;durP2;ratioP2;P2;SDS_P1;SDS_P2;PMS_P1;PMS_P2;Temp;Humidity;BMP_temperature;BMP_pressure;BME280_temperature;BME280_humidity;BME280_pressure;Samples;Min_cycle;Max_cycle;Signal;HPM_P1;HPM_P2
2022/06/22 00:01:33;;;;;;;11.83;11.00;;;12.10;99.90;;;;;;5049181;28;20494;-67
2022/06/22 00:04:02;;;;;;;12.10;11.00;;;12.00;99.90;;;;;;5056868;28;20466;-68
2022/06/22 00:06:34;;;;;;;11.70;10.87;;;12.00;99.90;;;;;;5055529;28;20464;-67
2022/06/22 00:09:02;;;;;;;12.53;11.67;;;11.90;99.90;;;;;;5055435;28;20775;-67
2022/06/22 00:11:30;;;;;;;11.03;10.33;;;11.90;99.90;;;;;;5058544;28;20595;-67
2022/06/22 00:14:00;;;;;;;12.20;11.50;;;11.80;99.90;;;;;;5051180;28;20467;-67
2022/06/22 00:16:30;;;;;;;39.37;13.50;;;11.70;99.90;;;;;;5060348;28;20469;-67
2022/06/22 00:18:58;;;;;;;12.50;11.70;;;11.70;99.90;;;;;;5054746;28;20459;-67
2022/06/22 00:21:30;;;;;;;11.90;11.20;;;11.60;99.90;;;;;;5057630;28;20488;-67
2022/06/22 00:24:01;;;;;;;12.00;11.20;;;11.60;99.90;;;;;;5055934;28;20826;-67
2022/06/22 00:26:32;;;;;;;11.63;10.93;;;11.50;99.90;;;;;;5056743;28;20463;-68
2022/06/22 00:29:21;;;;;;;15.57;14.33;;;11.50;99.90;;;;;;5057591;28;20550;-67
2022/06/22 00:32:15;;;;;;;12.23;11.43;;;11.40;99.90;;;;;;5054732;28;20843;-67
2022/06/22 00:34:43;;;;;;;13.63;11.80;;;11.30;99.90;;;;;;5058836;28;20458;-67
2022/06/22 00:37:16;;;;;;;11.90;11.10;;;11.30;99.90;;;;;;5054540;28;20459;-67
2022/06/22 00:39:46;;;;;;;13.30;12.50;;;11.30;99.90;;;;;;5054992;28;20481;-67
2022/06/22 00:42:28;;;;;;;12.40;11.70;;;11.30;99.90;;;;;;5051768;28;20462;-67
2022/06/22 00:45:01;;;;;;;12.10;11.30;;;11.30;99.90;;;;;;5058608;28;20796;-67
2022/06/22 00:47:32;;;;;;;13.10;12.30;;;11.20;99.90;;;;;;5054109;28;20547;-67
2022/06/22 00:50:03;;;;;;;13.70;12.70;;;11.10;99.90;;;;;;5054849;28;20506;-66
2022/06/22 00:52:37;;;;;;;12.60;12.00;;;11.00;99.90;;;;;;5056727;28;20471;-67
2022/06/22 00:55:17;;;;;;;13.67;12.77;;;10.90;99.90;;;;;;5055103;28;20464;-67
2022/06/22 00:57:53;;;;;;;13.13;12.40;;;10.90;99.90;;;;;;5056259;28;20464;-67
2022/06/22 01:00:22;;;;;;;13.20;12.37;;;10.90;99.90;;;;;;5065256;28;20839;-67
2022/06/22 01:02:55;;;;;;;13.00;12.20;;;10.90;99.90;;;;;;5058179;28;20455;-67
2022/06/22 01:05:28;;;;;;;13.83;12.53;;;11.00;99.90;;;;;;5058769;28;20474;-66
2022/06/22 01:08:08;;;;;;;13.43;12.40;;;11.00;99.90;;;;;;5058116;28;20462;-66
2022/06/22 01:10:43;;;;;;;12.70;11.93;;;10.90;99.90;;;;;;5055414;28;20494;-67
2022/06/22 01:13:17;;;;;;;13.23;12.33;;;10.90;99.90;;;;;;5050957;28;20470;-66
2022/06/22 01:15:50;;;;;;;13.00;12.20;;;10.90;99.90;;;;;;5065568;28;20997;-67
2022/06/22 01:18:23;;;;;;;14.03;12.87;;;10.80;99.90;;;;;;5057327;28;20834;-67
2022/06/22 01:21:01;;;;;;;16.03;12.97;;;10.70;99.90;;;;;;5057618;28;20464;-67
2022/06/22 01:24:09;;;;;;;15.30;13.93;;;10.70;99.90;;;;;;5058660;28;20564;-67
2022/06/22 01:27:20;;;;;;;14.57;13.70;;;10.70;99.90;;;;;;4984208;28;20497;-68
2022/06/22 01:29:50;;;;;;;14.37;13.47;;;10.60;99.90;;;;;;5056580;28;20831;-68
2022/06/22 01:32:21;;;;;;;14.27;13.47;;;10.50;99.90;;;;;;5056923;28;20459;-67
2022/06/22 01:34:50;;;;;;;14.40;13.47;;;10.50;99.90;;;;;;5058349;28;20454;-67
2022/06/22 01:37:21;;;;;;;15.10;14.00;;;10.40;99.90;;;;;;5054218;28;20468;-67
2022/06/22 01:39:48;;;;;;;15.23;14.27;;;10.40;99.90;;;;;;5057891;28;20460;-67
2022/06/22 01:42:22;;;;;;;15.23;14.33;;;10.30;99.90;;;;;;5060230;28;20459;-68
2022/06/22 01:44:56;;;;;;;13.50;12.70;;;10.30;99.90;;;;;;5050248;28;20821;-68
2022/06/22 01:47:29;;;;;;;15.40;14.37;;;10.10;99.90;;;;;;5057528;28;20955;-68
2022/06/22 01:50:05;;;;;;;14.60;13.70;;;10.10;99.90;;;;;;5057207;28;20521;-67
2022/06/22 01:52:54;;;;;;;15.90;14.80;;;10.10;99.90;;;;;;5051609;28;20467;-66
2022/06/22 01:55:31;;;;;;;15.40;14.50;;;10.00;99.90;;;;;;5060518;28;20471;-67
2022/06/22 01:58:06;;;;;;;15.70;14.50;;;9.90;99.90;;;;;;5052723;28;20464;-67
2022/06/22 02:00:32;;;;;;;16.10;15.00;;;9.80;99.90;;;;;;5060213;28;20452;-68
2022/06/22 02:03:03;;;;;;;15.13;13.93;;;9.90;99.90;;;;;;5050952;28;20463;-67
2022/06/22 02:05:38;;;;;;;16.07;15.03;;;9.90;99.90;;;;;;5054301;28;20493;-67
2022/06/22 02:08:10;;;;;;;15.80;15.00;;;9.80;99.90;;;;;;5058272;28;20464;-67
2022/06/22 02:10:42;;;;;;;18.13;16.57;;;9.70;99.90;;;;;;5053632;28;20495;-67
2022/06/22 02:13:29;;;;;;;16.20;15.30;;;9.70;99.90;;;;;;5055794;28;20474;-67
2022/06/22 02:16:04;;;;;;;16.70;15.60;;;9.70;99.90;;;;;;5053823;28;20474;-68
2022/06/22 02:18:37;;;;;;;17.20;16.03;;;9.60;99.90;;;;;;5049436;28;20468;-68
2022/06/22 02:21:19;;;;;;;17.30;15.73;;;9.60;99.90;;;;;;5050032;28;20819;-68
2022/06/22 02:23:50;;;;;;;17.93;16.73;;;9.60;99.90;;;;;;5055956;28;20487;-67
2022/06/22 02:26:23;;;;;;;18.90;17.63;;;9.70;99.90;;;;;;5055176;28;20459;-67
2022/06/22 02:28:53;;;;;;;17.57;16.37;;;9.60;99.90;;;;;;5054215;28;20464;-67
2022/06/22 02:31:21;;;;;;;19.40;17.80;;;9.60;99.90;;;;;;5053404;28;20485;-67
2022/06/22 02:33:52;;;;;;;19.23;17.63;;;9.70;99.90;;;;;;5058869;28;20456;-67
2022/06/22 02:36:20;;;;;;;18.30;17.10;;;9.70;99.90;;;;;;5057253;28;20542;-68
2022/06/22 02:38:51;;;;;;;20.37;18.80;;;9.70;99.90;;;;;;5048536;28;20973;-67
2022/06/22 02:44:30;;;;;;;19.37;17.97;;;9.70;99.90;;;;;;5052269;28;20455;-67
2022/06/22 02:46:59;;;;;;;19.03;17.60;;;9.60;99.90;;;;;;5055156;28;20497;-67
2022/06/22 02:49:30;;;;;;;17.77;16.70;;;9.60;99.90;;;;;;5058067;28;20468;-67
2022/06/22 02:51:59;;;;;;;18.87;17.63;;;9.60;99.90;;;;;;5057390;28;20494;-67
2022/06/22 02:54:31;;;;;;;20.10;18.50;;;9.50;99.90;;;;;;5050588;28;20466;-67
2022/06/22 02:57:12;;;;;;;19.10;17.90;;;9.40;99.90;;;;;;5058252;28;20467;-67
2022/06/22 02:59:41;;;;;;;19.13;17.93;;;9.30;99.90;;;;;;5053817;28;20466;-67
2022/06/22 03:02:11;;;;;;;18.47;17.17;;;9.20;99.90;;;;;;5051134;28;20546;-68
2022/06/22 03:04:39;;;;;;;21.17;19.13;;;9.20;99.90;;;;;;5061078;28;20464;-67
2022/06/22 03:07:07;;;;;;;18.37;17.13;;;9.20;99.90;;;;;;5056889;28;20951;-66
2022/06/22 03:09:35;;;;;;;19.07;17.70;;;9.40;99.90;;;;;;5060831;28;20483;-67
2022/06/22 03:12:04;;;;;;;19.70;18.30;;;9.40;99.90;;;;;;5062591;28;20544;-67
2022/06/22 03:14:33;;;;;;;19.37;17.87;;;9.40;99.90;;;;;;5053757;28;20461;-67
2022/06/22 03:17:05;;;;;;;20.23;18.90;;;9.50;99.90;;;;;;5056804;28;20468;-67
2022/06/22 03:19:39;;;;;;;19.20;18.00;;;9.50;99.90;;;;;;5052158;28;20458;-68
2022/06/22 03:22:06;;;;;;;20.37;18.50;;;9.50;99.90;;;;;;5053002;28;20493;-68
2022/06/22 03:24:39;;;;;;;19.60;17.90;;;9.60;99.90;;;;;;5049422;28;20478;-67
2022/06/22 03:27:13;;;;;;;20.03;18.27;;;9.60;99.90;;;;;;5058164;28;20530;-67
2022/06/22 03:29:46;;;;;;;19.67;18.43;;;9.60;99.90;;;;;;5053347;28;20471;-67
2022/06/22 03:32:18;;;;;;;19.77;18.37;;;9.70;99.90;;;;;;5054430;28;21025;-67
2022/06/22 03:34:49;;;;;;;21.07;18.90;;;9.90;99.90;;;;;;5051357;28;20463;-67
2022/06/22 03:37:19;;;;;;;18.43;17.23;;;9.90;99.90;;;;;;5051275;28;20490;-68
2022/06/22 03:39:50;;;;;;;19.63;18.07;;;10.00;99.90;;;;;;5057021;28;21300;-66
2022/06/22 03:42:22;;;;;;;20.57;18.77;;;9.90;99.90;;;;;;5059663;28;20477;-67
2022/06/22 03:44:54;;;;;;;22.23;20.03;;;9.90;99.90;;;;;;5056093;28;20454;-67
2022/06/22 03:47:26;;;;;;;20.80;18.90;;;10.10;99.90;;;;;;5055798;28;20467;-66
2022/06/22 03:49:58;;;;;;;21.20;19.53;;;10.20;99.90;;;;;;5053721;28;20475;-67
2022/06/22 03:52:31;;;;;;;20.50;18.87;;;10.40;99.90;;;;;;5051020;28;20491;-66
2022/06/22 03:55:02;;;;;;;18.13;16.80;;;10.50;99.90;;;;;;5047818;28;20574;-67
2022/06/22 03:57:33;;;;;;;18.10;16.70;;;10.50;99.90;;;;;;5056246;28;20467;-66
2022/06/22 04:00:00;;;;;;;19.30;17.90;;;10.40;99.90;;;;;;5051918;28;20792;-66
2022/06/22 04:02:29;;;;;;;19.50;18.20;;;10.40;99.90;;;;;;5041792;28;20467;-68
2022/06/22 04:04:58;;;;;;;20.63;19.30;;;10.50;99.90;;;;;;5030285;28;20827;-67
2022/06/22 04:07:27;;;;;;;20.23;18.40;;;10.50;99.90;;;;;;5048312;28;20459;-68
2022/06/22 04:09:57;;;;;;;18.87;17.57;;;10.60;99.90;;;;;;5042546;28;21391;-66
2022/06/22 04:12:30;;;;;;;23.17;21.27;;;10.70;99.90;;;;;;5031940;28;21976;-68
2022/06/22 04:15:10;;;;;;;21.30;19.60;;;10.80;99.90;;;;;;5033220;28;20494;-67
2022/06/22 04:17:41;;;;;;;20.50;19.17;;;10.80;99.90;;;;;;5032205;28;20469;-67
2022/06/22 04:20:49;;;;;;;19.90;18.20;;;10.80;99.90;;;;;;5031697;28;20806;-67
2022/06/22 04:23:14;;;;;;;19.97;18.67;;;10.90;99.90;;;;;;5031380;28;20531;-68
2022/06/22 04:25:41;;;;;;;20.47;19.10;;;11.00;99.90;;;;;;5032625;28;21006;-68
2022/06/22 04:28:14;;;;;;;19.90;18.50;;;11.00;99.90;;;;;;5032106;28;20490;-67
2022/06/22 04:30:45;;;;;;;20.60;19.10;;;11.00;99.90;;;;;;5031814;28;21054;-68
2022/06/22 04:33:19;;;;;;;21.17;19.63;;;11.00;99.90;;;;;;5032472;28;20879;-65
2022/06/22 04:35:50;;;;;;;21.23;19.33;;;11.10;99.90;;;;;;5031836;28;20471;-66
2022/06/22 04:38:21;;;;;;;21.93;20.30;;;11.10;99.90;;;;;;5030514;28;20467;-66
2022/06/22 04:40:56;;;;;;;21.50;19.90;;;11.10;99.90;;;;;;5032451;28;20468;-66
2022/06/22 04:43:24;;;;;;;21.40;19.80;;;11.10;99.90;;;;;;5032652;28;20466;-67
2022/06/22 04:45:52;;;;;;;22.20;20.30;;;11.10;99.90;;;;;;5031140;28;20456;-66
2022/06/22 04:48:22;;;;;;;22.47;20.40;;;11.20;99.90;;;;;;5032372;28;20524;-66
2022/06/22 04:50:53;;;;;;;22.53;20.93;;;11.30;99.90;;;;;;5031550;28;20451;-67
2022/06/22 04:53:26;;;;;;;22.00;20.20;;;11.40;99.90;;;;;;5031754;28;20896;-68
2022/06/22 04:55:54;;;;;;;21.93;20.23;;;11.40;99.90;;;;;;5030977;28;20765;-69
2022/06/22 04:58:32;;;;;;;21.10;19.60;;;11.60;99.90;;;;;;5030187;28;20467;-67
2022/06/22 05:01:00;;;;;;;21.77;19.83;;;11.70;99.90;;;;;;5031645;28;20470;-67
2022/06/22 05:03:29;;;;;;;21.93;20.00;;;11.90;99.90;;;;;;5029777;28;20467;-67
2022/06/22 05:05:59;;;;;;;21.40;19.70;;;12.00;99.90;;;;;;5031100;28;20464;-67
2022/06/22 05:08:29;;;;;;;23.47;20.33;;;12.20;99.90;;;;;;5031448;28;21218;-66
2022/06/22 05:11:00;;;;;;;21.20;19.40;;;12.30;99.90;;;;;;5031681;28;20852;-67
2022/06/22 05:13:30;;;;;;;22.17;20.13;;;12.40;99.90;;;;;;5032148;28;20462;-67
2022/06/22 05:15:59;;;;;;;22.10;20.23;;;12.60;99.90;;;;;;5032059;28;20463;-67
2022/06/22 05:18:30;;;;;;;20.47;18.77;;;12.70;99.90;;;;;;5031872;28;20471;-68
2022/06/22 05:21:04;;;;;;;20.57;18.90;;;12.90;99.90;;;;;;5031291;28;20543;-68
2022/06/22 05:23:33;;;;;;;20.70;18.70;;;13.00;99.90;;;;;;5031458;28;20558;-68
2022/06/22 05:26:05;;;;;;;20.90;19.20;;;13.10;99.90;;;;;;5031358;28;20978;-67
2022/06/22 05:28:35;;;;;;;22.40;19.77;;;13.30;99.90;;;;;;5030977;28;20471;-66
2022/06/22 05:31:06;;;;;;;23.40;20.83;;;13.50;99.90;;;;;;5028290;28;20467;-66
2022/06/22 05:33:36;;;;;;;21.10;18.70;;;13.70;99.90;;;;;;5031388;28;20478;-67
2022/06/22 05:36:06;;;;;;;18.10;16.60;;;13.90;99.90;;;;;;5031100;28;20471;-66
2022/06/22 05:38:36;;;;;;;18.60;16.60;;;14.10;99.90;;;;;;5030287;28;20471;-67
2022/06/22 05:41:07;;;;;;;18.17;16.40;;;14.40;99.90;;;;;;5030743;28;20483;-67
2022/06/22 05:43:34;;;;;;;17.40;15.60;;;14.70;99.90;;;;;;5030613;28;21157;-67
2022/06/22 05:46:02;;;;;;;16.17;14.87;;;14.90;99.90;;;;;;5031822;28;20479;-66
2022/06/22 05:48:32;;;;;;;18.17;16.30;;;15.10;99.90;;;;;;5030672;28;20456;-66
2022/06/22 05:51:04;;;;;;;16.80;15.50;;;15.30;99.90;;;;;;5030789;28;21042;-67
2022/06/22 05:53:39;;;;;;;18.03;16.40;;;15.60;99.90;;;;;;5030181;28;20758;-67
2022/06/22 05:56:14;;;;;;;19.60;17.60;;;15.80;99.90;;;;;;5038303;28;20446;-66
2022/06/22 05:58:47;;;;;;;17.97;16.60;;;16.00;99.90;;;;;;5030602;28;20475;-67
2022/06/22 06:01:21;;;;;;;17.70;15.83;;;16.20;99.90;;;;;;5032997;28;20474;-66
2022/06/22 06:03:56;;;;;;;17.37;16.17;;;16.30;99.90;;;;;;5052129;28;21505;-66
2022/06/22 06:06:28;;;;;;;19.80;18.03;;;16.50;99.90;;;;;;5039890;28;21079;-66
2022/06/22 06:08:59;;;;;;;18.73;16.73;;;16.60;99.90;;;;;;5023688;28;21124;-66
2022/06/22 06:11:32;;;;;;;19.07;17.87;;;16.70;99.90;;;;;;5026719;28;20518;-67
2022/06/22 06:14:02;;;;;;;20.83;17.87;;;16.90;99.90;;;;;;5028520;28;20463;-67
2022/06/22 06:16:38;;;;;;;19.87;18.20;;;17.10;99.90;;;;;;5027896;28;20502;-67
2022/06/22 06:19:07;;;;;;;18.40;17.10;;;17.30;99.90;;;;;;5025857;28;20463;-67
2022/06/22 06:21:39;;;;;;;19.67;17.97;;;17.50;99.90;;;;;;5028014;28;21112;-67
2022/06/22 06:24:15;;;;;;;17.60;16.27;;;17.60;99.90;;;;;;5026673;28;20799;-67
2022/06/22 06:29:36;;;;;;;18.57;17.47;;;17.80;99.90;;;;;;5027250;28;20463;-67
2022/06/22 06:32:22;;;;;;;19.83;18.23;;;18.00;99.90;;;;;;5025712;28;20502;-68
2022/06/22 06:34:56;;;;;;;19.93;18.23;;;18.10;99.90;;;;;;5026262;28;20756;-68
2022/06/22 06:37:32;;;;;;;18.23;16.87;;;18.30;99.90;;;;;;5020780;28;21494;-66
2022/06/22 06:40:00;;;;;;;19.07;17.50;;;18.50;99.90;;;;;;5016329;28;20550;-67
2022/06/22 06:42:34;;;;;;;23.40;18.83;;;18.60;99.90;;;;;;5021403;28;20490;-67
2022/06/22 06:45:03;;;;;;;18.83;17.17;;;18.50;99.90;;;;;;5019401;28;20828;-66
2022/06/22 06:47:34;;;;;;;25.03;19.10;;;18.60;99.90;;;;;;5023681;28;20806;-67
2022/06/22 06:50:07;;;;;;;19.27;17.83;;;18.70;99.90;;;;;;5022142;28;20565;-67
2022/06/22 06:52:44;;;;;;;18.37;16.97;;;18.90;99.90;;;;;;5021822;28;21069;-67
2022/06/22 06:55:30;;;;;;;18.47;17.20;;;19.00;99.90;;;;;;5064958;28;20471;-68
2022/06/22 06:58:03;;;;;;;18.63;17.30;;;19.10;99.90;;;;;;5074652;28;21010;-67
2022/06/22 07:00:31;;;;;;;19.17;17.87;;;19.30;99.90;;;;;;5046817;28;20460;-67
2022/06/22 07:02:58;;;;;;;18.03;16.73;;;19.40;99.90;;;;;;5031867;28;21044;-68
2022/06/22 07:05:28;;;;;;;19.10;17.73;;;19.50;99.90;;;;;;5025529;28;20467;-67
2022/06/22 07:08:01;;;;;;;17.73;16.53;;;19.60;99.90;;;;;;5031982;28;20508;-68
2022/06/22 07:10:34;;;;;;;18.30;17.00;;;19.70;99.90;;;;;;5026850;28;20499;-67
2022/06/22 07:13:03;;;;;;;18.57;17.17;;;19.70;99.90;;;;;;5029980;28;20491;-67
2022/06/22 07:15:36;;;;;;;19.20;17.40;;;19.90;99.90;;;;;;5029505;28;20482;-68
2022/06/22 07:18:14;;;;;;;18.10;16.90;;;19.90;99.90;;;;;;5030370;28;20460;-67
2022/06/22 07:20:46;;;;;;;17.93;16.83;;;20.10;99.90;;;;;;5028457;28;20467;-68
2022/06/22 07:23:22;;;;;;;19.37;17.33;;;20.30;99.90;;;;;;5030226;28;20959;-67
2022/06/22 07:25:53;;;;;;;17.93;16.53;;;20.40;99.90;;;;;;5029361;28;20471;-67
2022/06/22 07:28:26;;;;;;;17.27;15.97;;;20.60;99.90;;;;;;5028095;28;20458;-67
2022/06/22 07:30:56;;;;;;;16.63;15.60;;;20.60;99.90;;;;;;5026427;28;20477;-66
2022/06/22 07:33:29;;;;;;;16.87;15.80;;;20.80;99.90;;;;;;5028816;28;20522;-67
2022/06/22 07:36:00;;;;;;;17.87;16.37;;;20.90;99.90;;;;;;5062397;28;20451;-67
2022/06/22 07:38:41;;;;;;;17.03;15.63;;;21.10;99.90;;;;;;5058659;28;20452;-67
2022/06/22 07:41:22;;;;;;;17.50;16.17;;;21.20;99.90;;;;;;5046511;28;21092;-68
2022/06/22 07:43:53;;;;;;;17.60;16.23;;;21.50;99.90;;;;;;5027379;28;20653;-68
2022/06/22 07:46:24;;;;;;;16.97;15.87;;;21.50;99.90;;;;;;5027896;28;20463;-67
2022/06/22 07:48:56;;;;;;;17.60;16.30;;;21.70;99.90;;;;;;5028751;28;21053;-68
2022/06/22 07:51:27;;;;;;;17.50;16.40;;;21.70;99.90;;;;;;5028747;28;20467;-68
2022/06/22 07:54:01;;;;;;;16.80;15.83;;;22.00;99.90;;;;;;5029676;28;20487;-68
2022/06/22 07:56:34;;;;;;;16.60;15.63;;;22.20;99.90;;;;;;5030905;28;22489;-68
2022/06/22 07:59:06;;;;;;;16.57;15.53;;;22.40;99.90;;;;;;5028499;28;20466;-68
2022/06/22 08:01:38;;;;;;;16.80;15.63;;;22.80;99.90;;;;;;5029208;28;20493;-67
2022/06/22 08:04:12;;;;;;;17.20;16.17;;;23.30;99.90;;;;;;5031051;28;21050;-68
2022/06/22 08:06:43;;;;;;;18.40;17.00;;;23.80;99.90;;;;;;5030567;28;20463;-68
2022/06/22 08:09:17;;;;;;;17.27;16.13;;;24.40;99.90;;;;;;5029822;28;21240;-68
2022/06/22 08:11:50;;;;;;;17.10;15.90;;;25.30;99.60;;;;;;5031106;28;20576;-68
2022/06/22 08:14:20;;;;;;;17.67;16.47;;;25.80;98.80;;;;;;5028458;28;20506;-68
2022/06/22 08:16:51;;;;;;;16.83;15.73;;;26.70;97.00;;;;;;5040018;28;20456;-68
2022/06/22 08:19:20;;;;;;;18.07;16.40;;;26.80;95.60;;;;;;5022825;28;20835;-68
2022/06/22 08:21:49;;;;;;;17.67;16.27;;;27.20;94.50;;;;;;5022800;28;20494;-68
2022/06/22 08:24:19;;;;;;;17.00;16.00;;;27.80;92.30;;;;;;5020549;28;20471;-69
2022/06/22 08:26:47;;;;;;;16.97;16.17;;;27.80;92.20;;;;;;5022548;28;20464;-68
2022/06/22 08:29:17;;;;;;;16.80;15.90;;;27.80;90.40;;;;;;5021288;28;20982;-68
2022/06/22 08:31:50;;;;;;;16.63;15.73;;;28.00;88.90;;;;;;5021919;28;20496;-68
2022/06/22 08:34:22;;;;;;;16.37;15.53;;;28.30;88.80;;;;;;5021079;28;21200;-68
2022/06/22 08:36:53;;;;;;;18.00;16.90;;;28.10;89.50;;;;;;5021697;28;20458;-69
2022/06/22 08:39:25;;;;;;;17.50;16.50;;;28.80;85.70;;;;;;5021833;28;21161;-69
2022/06/22 08:42:00;;;;;;;17.97;16.77;;;28.00;80.90;;;;;;5022276;28;20459;-68
2022/06/22 08:44:38;;;;;;;16.50;15.60;;;28.20;79.30;;;;;;5021371;28;20506;-69
2022/06/22 08:47:37;;;;;;;16.50;15.70;;;27.90;80.40;;;;;;5021463;28;20981;-69
2022/06/22 08:50:34;;;;;;;17.97;16.00;;;28.30;79.80;;;;;;5022226;28;20455;-68
2022/06/22 08:53:16;;;;;;;17.23;15.93;;;28.50;75.30;;;;;;5021860;28;20912;-70
2022/06/22 08:56:00;;;;;;;16.50;15.50;;;29.10;76.90;;;;;;5023100;28;20459;-69
2022/06/22 08:58:45;;;;;;;16.57;15.63;;;29.30;72.60;;;;;;5024347;28;20469;-68
2022/06/22 09:01:23;;;;;;;18.73;17.33;;;29.60;70.70;;;;;;5026178;28;21156;-68
2022/06/22 09:04:16;;;;;;;17.47;16.47;;;29.80;69.80;;;;;;5025983;28;20482;-68
2022/06/22 09:07:07;;;;;;;17.63;16.47;;;28.90;67.00;;;;;;5026314;28;20471;-68
2022/06/22 09:10:14;;;;;;;16.67;15.67;;;28.90;67.00;;;;;;5025176;28;20587;-69
2022/06/22 09:12:56;;;;;;;17.93;16.73;;;29.90;65.80;;;;;;5026327;28;20621;-67
2022/06/22 09:15:39;;;;;;;17.07;15.90;;;29.60;64.70;;;;;;5025471;28;20466;-68
2022/06/22 09:18:29;;;;;;;17.50;16.50;;;30.20;64.20;;;;;;5024694;28;20460;-69
2022/06/22 09:21:11;;;;;;;16.57;15.67;;;30.90;64.40;;;;;;5025167;28;20458;-69
2022/06/22 09:23:42;;;;;;;17.80;16.30;;;31.40;59.70;;;;;;5024392;28;20858;-68
2022/06/22 09:26:20;;;;;;;17.00;15.80;;;31.60;58.40;;;;;;5026362;28;21191;-68
2022/06/22 09:28:57;;;;;;;16.30;15.40;;;31.50;58.50;;;;;;5025692;28;20830;-69
2022/06/22 09:31:56;;;;;;;16.20;15.40;;;31.60;56.90;;;;;;5025342;28;20786;-68
2022/06/22 09:35:00;;;;;;;16.53;15.67;;;30.50;57.70;;;;;;5021813;28;20467;-68
2022/06/22 09:37:49;;;;;;;16.97;15.63;;;29.80;57.00;;;;;;5025844;28;20464;-68
2022/06/22 09:40:46;;;;;;;16.33;15.43;;;30.40;57.90;;;;;;5025674;28;21456;-68
2022/06/22 09:43:49;;;;;;;16.40;15.10;;;30.40;56.80;;;;;;5020191;28;20498;-69
2022/06/22 09:46:40;;;;;;;16.80;15.60;;;30.60;56.20;;;;;;5025335;28;20472;-68
2022/06/22 09:49:40;;;;;;;15.80;15.10;;;30.90;55.70;;;;;;5026237;28;20522;-68
2022/06/22 09:52:53;;;;;;;17.97;16.13;;;30.40;55.10;;;;;;5024862;28;20562;-68
2022/06/22 09:58:51;;;;;;;17.13;16.03;;;32.20;54.30;;;;;;5025355;28;20590;-68
2022/06/22 10:01:28;;;;;;;16.80;15.70;;;31.70;52.10;;;;;;5023774;28;20978;-68
2022/06/22 10:04:30;;;;;;;16.50;15.50;;;32.40;51.10;;;;;;5024668;28;20494;-69
2022/06/22 10:07:14;;;;;;;16.67;15.53;;;32.20;50.90;;;;;;5025706;28;20471;-68
2022/06/22 10:10:08;;;;;;;16.43;15.33;;;32.50;52.10;;;;;;5025269;28;21137;-69
2022/06/22 10:13:01;;;;;;;16.27;15.37;;;33.30;50.30;;;;;;5025438;28;20785;-69
2022/06/22 10:15:44;;;;;;;16.70;15.80;;;32.30;51.00;;;;;;5017566;28;20460;-69
2022/06/22 10:18:39;;;;;;;16.47;15.33;;;33.20;50.30;;;;;;5044108;28;20551;-69
2022/06/22 10:21:17;;;;;;;17.53;16.10;;;33.40;49.10;;;;;;5050840;28;20725;-68
2022/06/22 10:24:04;;;;;;;16.73;15.60;;;33.80;48.20;;;;;;5036958;28;20668;-68
2022/06/22 10:26:47;;;;;;;16.60;15.60;;;34.00;47.40;;;;;;5024608;28;20833;-69
2022/06/22 10:29:39;;;;;;;16.10;15.30;;;33.70;47.90;;;;;;5025282;28;20462;-68
2022/06/22 10:32:35;;;;;;;16.53;15.63;;;33.80;46.60;;;;;;5023659;28;21016;-69
2022/06/22 10:35:13;;;;;;;16.47;15.53;;;34.40;46.20;;;;;;5025154;28;20470;-69
2022/06/22 10:38:10;;;;;;;17.37;15.47;;;34.60;44.60;;;;;;5024541;28;20601;-68
2022/06/22 10:46:39;;;;;;;16.60;15.60;;;33.50;45.50;;;;;;5023878;28;20618;-69
2022/06/22 10:49:43;;;;;;;16.70;15.73;;;34.00;44.90;;;;;;5024645;28;20478;-69
2022/06/22 10:52:37;;;;;;;16.43;15.10;;;34.80;42.90;;;;;;5024085;28;20566;-68
2022/06/22 10:55:32;;;;;;;16.60;15.60;;;35.30;43.20;;;;;;5024268;28;20616;-69
2022/06/22 10:58:13;;;;;;;16.53;15.30;;;34.70;42.80;;;;;;5023552;28;20456;-69
2022/06/22 11:00:52;;;;;;;16.43;15.63;;;34.60;42.70;;;;;;5022408;28;20468;-69
2022/06/22 11:04:01;;;;;;;15.97;15.07;;;34.00;42.90;;;;;;5022685;28;20575;-69
2022/06/22 11:07:07;;;;;;;17.17;16.00;;;33.80;41.50;;;;;;5024116;28;20811;-68
2022/06/22 11:09:54;;;;;;;16.43;15.33;;;33.40;43.00;;;;;;5024145;28;20495;-69
2022/06/22 11:12:45;;;;;;;16.80;15.80;;;34.10;41.50;;;;;;5023395;28;20475;-70
2022/06/22 11:15:48;;;;;;;16.77;15.80;;;34.50;41.40;;;;;;5024304;28;20448;-69
2022/06/22 11:18:41;;;;;;;15.93;15.13;;;35.90;40.50;;;;;;5024109;28;20511;-69
2022/06/22 11:21:17;;;;;;;16.10;15.00;;;36.10;38.80;;;;;;5022571;28;20475;-69
2022/06/22 11:24:13;;;;;;;15.87;15.03;;;35.70;38.10;;;;;;5023117;28;20499;-69
2022/06/22 11:32:55;;;;;;;16.07;15.20;;;37.00;34.90;;;;;;5023824;28;20459;-69
2022/06/22 11:35:40;;;;;;;16.47;15.27;;;37.30;36.00;;;;;;5021551;28;20557;-68
2022/06/22 11:38:31;;;;;;;16.40;15.37;;;38.00;35.00;;;;;;5021431;28;20467;-70
2022/06/22 11:41:30;;;;;;;15.67;14.87;;;36.30;35.20;;;;;;5023401;28;20456;-70
2022/06/22 11:44:28;;;;;;;14.83;14.03;;;36.40;35.50;;;;;;5023488;28;20628;-69
2022/06/22 11:46:58;;;;;;;15.63;14.50;;;36.60;34.00;;;;;;5021483;28;20463;-70
2022/06/22 11:49:41;;;;;;;15.43;14.43;;;37.00;34.40;;;;;;5022995;28;20478;-70
2022/06/22 11:52:44;;;;;;;15.23;14.37;;;37.00;33.30;;;;;;5023475;28;20848;-69
2022/06/22 11:55:22;;;;;;;15.00;14.20;;;35.60;33.00;;;;;;5022893;28;20456;-68
2022/06/22 11:58:26;;;;;;;14.73;14.00;;;35.80;33.00;;;;;;5022620;28;20536;-69
2022/06/22 12:01:25;;;;;;;14.73;14.03;;;37.30;33.10;;;;;;5022746;28;20566;-69
2022/06/22 12:04:19;;;;;;;15.37;14.67;;;37.00;34.50;;;;;;5005030;28;20492;-69
2022/06/22 12:07:12;;;;;;;15.43;14.37;;;37.00;33.00;;;;;;5048703;28;20510;-69
2022/06/22 12:09:54;;;;;;;15.20;14.30;;;37.60;32.50;;;;;;5047956;28;20518;-69
2022/06/22 12:12:48;;;;;;;15.23;14.33;;;37.10;33.00;;;;;;5023200;28;20482;-69
2022/06/22 12:15:32;;;;;;;14.20;13.47;;;38.50;32.00;;;;;;5023079;28;20541;-69
2022/06/22 12:18:13;;;;;;;14.10;13.40;;;37.90;31.50;;;;;;5024112;28;20468;-69
2022/06/22 12:20:54;;;;;;;14.70;14.00;;;38.10;31.60;;;;;;5020879;28;20465;-70
2022/06/22 12:23:35;;;;;;;14.10;13.40;;;36.60;31.60;;;;;;5021941;28;21049;-70
2022/06/22 12:26:15;;;;;;;14.10;13.50;;;37.20;32.90;;;;;;5020894;28;20516;-70
2022/06/22 12:29:01;;;;;;;13.77;13.07;;;37.90;31.00;;;;;;5022682;28;20844;-70
2022/06/22 12:31:35;;;;;;;15.43;14.63;;;38.80;31.50;;;;;;5022453;28;21129;-69
2022/06/22 12:34:11;;;;;;;15.73;14.50;;;38.30;30.50;;;;;;5026087;28;21239;-70
2022/06/22 12:36:41;;;;;;;15.40;14.47;;;38.50;30.90;;;;;;5026321;28;20466;-69
2022/06/22 12:39:16;;;;;;;15.03;14.23;;;38.50;30.00;;;;;;5027572;28;20468;-69
2022/06/22 12:42:04;;;;;;;15.07;14.27;;;38.30;29.80;;;;;;5032834;28;20507;-70
2022/06/22 12:45:06;;;;;;;15.30;14.23;;;37.10;30.90;;;;;;5027970;28;20491;-69
2022/06/22 12:47:57;;;;;;;15.43;14.30;;;37.60;30.80;;;;;;5025087;28;20970;-68
2022/06/22 12:50:49;;;;;;;14.77;13.87;;;37.30;31.20;;;;;;5027788;28;20467;-70
2022/06/22 12:53:22;;;;;;;14.87;13.83;;;38.20;30.50;;;;;;5025327;28;20468;-70
2022/06/22 12:55:52;;;;;;;13.70;13.10;;;38.80;29.20;;;;;;5025057;28;20554;-69
2022/06/22 12:58:26;;;;;;;13.50;12.80;;;39.30;28.80;;;;;;5029552;28;20473;-70
2022/06/22 13:00:56;;;;;;;14.93;13.80;;;39.10;28.80;;;;;;5029813;28;20554;-70
2022/06/22 13:03:26;;;;;;;13.77;13.17;;;37.80;29.10;;;;;;5027906;28;20464;-69
2022/06/22 13:05:55;;;;;;;14.50;13.80;;;38.20;28.80;;;;;;5029199;28;20460;-69
2022/06/22 13:08:26;;;;;;;14.50;13.60;;;36.90;29.20;;;;;;5030171;28;20478;-69
2022/06/22 13:10:58;;;;;;;13.37;12.77;;;37.50;29.10;;;;;;5029720;28;20451;-69
2022/06/22 13:13:32;;;;;;;14.40;13.70;;;37.10;29.40;;;;;;5029977;28;20471;-70
2022/06/22 13:16:03;;;;;;;15.23;14.23;;;37.40;29.70;;;;;;5028677;28;20459;-69
2022/06/22 13:18:36;;;;;;;14.90;14.10;;;36.50;28.90;;;;;;5028548;28;21635;-69
2022/06/22 13:21:12;;;;;;;14.20;13.43;;;36.90;29.30;;;;;;5028361;28;20554;-70
2022/06/22 13:23:48;;;;;;;14.13;13.37;;;37.70;28.80;;;;;;5029128;28;20463;-69
2022/06/22 13:26:26;;;;;;;14.20;13.27;;;38.70;28.60;;;;;;5028832;28;20462;-70
2022/06/22 13:28:59;;;;;;;14.57;13.83;;;37.90;28.90;;;;;;5029053;28;20499;-69
2022/06/22 13:31:29;;;;;;;14.50;13.30;;;38.60;28.90;;;;;;5029091;28;20474;-69
2022/06/22 13:33:58;;;;;;;13.43;12.73;;;38.50;28.10;;;;;;5030400;28;20454;-69
2022/06/22 13:36:38;;;;;;;14.10;13.10;;;38.90;28.60;;;;;;5029584;28;20467;-69
2022/06/22 13:39:18;;;;;;;14.23;13.20;;;39.20;28.10;;;;;;5029509;28;20463;-69